createdAt,value
2019-05-09T00:00:58.587Z,13.30
2019-05-09T00:02:03.399Z,13.30
2019-05-09T00:03:07.113Z,13.30
2019-05-09T00:04:13.751Z,13.29
2019-05-09T00:05:15.937Z,13.29
2019-05-09T00:06:20.246Z,13.30
2019-05-09T00:07:24.586Z,13.30
2019-05-09T00:08:28.899Z,13.31
2019-05-09T00:09:33.632Z,13.30
2019-05-09T00:10:41.572Z,13.29
2019-05-09T00:11:43.853Z,13.28
2019-05-09T00:12:46.225Z,13.28
2019-05-09T00:13:50.593Z,13.28
2019-05-09T00:14:54.892Z,13.28
2019-05-09T00:15:59.336Z,13.28
2019-05-09T00:17:03.903Z,13.27
2019-05-09T00:18:07.980Z,13.26
2019-05-09T00:19:13.571Z,13.27
2019-05-09T00:20:16.646Z,13.26
2019-05-09T00:21:20.958Z,13.26
2019-05-09T00:22:25.346Z,13.26
2019-05-09T00:23:29.671Z,13.26
2019-05-09T00:24:34.040Z,13.26
2019-05-09T00:25:38.265Z,13.25
2019-05-09T00:26:44.226Z,13.24
2019-05-09T00:27:46.980Z,13.24
2019-05-09T00:28:53.245Z,13.24
2019-05-09T00:29:55.641Z,13.23
2019-05-09T00:30:59.907Z,13.21
2019-05-09T00:32:04.273Z,13.19
2019-05-09T00:33:08.590Z,13.13
2019-05-09T00:34:14.363Z,13.09
2019-05-09T00:35:17.294Z,13.05
2019-05-09T00:36:23.187Z,13.03
2019-05-09T00:37:25.934Z,13.00
2019-05-09T00:38:30.259Z,12.98
2019-05-09T00:39:34.534Z,12.94
2019-05-09T00:40:53.055Z,12.95
2019-05-09T00:41:43.605Z,12.94
2019-05-09T00:42:47.391Z,12.93
2019-05-09T00:43:54.164Z,12.93
2019-05-09T00:44:56.085Z,12.93
2019-05-09T00:46:00.390Z,12.94
2019-05-09T00:47:04.760Z,12.95
2019-05-09T00:48:09.058Z,12.97
2019-05-09T00:49:14.058Z,12.97
2019-05-09T00:50:17.675Z,12.98
2019-05-09T00:51:23.274Z,12.98
2019-05-09T00:52:26.459Z,12.97
2019-05-09T00:53:30.730Z,12.95
2019-05-09T00:54:35.012Z,12.95
2019-05-09T00:55:39.343Z,12.92
2019-05-09T00:56:43.744Z,12.90
2019-05-09T00:57:48.030Z,12.88
2019-05-09T00:58:53.533Z,12.87
2019-05-09T00:59:56.656Z,12.87
2019-05-09T01:01:00.986Z,12.84
2019-05-09T01:02:05.247Z,12.81
2019-05-09T01:03:09.625Z,12.79
2019-05-09T01:04:13.965Z,12.76
2019-05-09T01:05:18.294Z,12.73
2019-05-09T01:06:24.049Z,12.71
2019-05-09T01:07:26.920Z,12.67
2019-05-09T01:08:33.352Z,12.65
2019-05-09T01:09:35.349Z,12.63
2019-05-09T01:10:39.748Z,12.61
2019-05-09T01:11:44.182Z,12.59
2019-05-09T01:12:48.337Z,12.58
2019-05-09T01:13:54.308Z,12.57
2019-05-09T01:14:57.088Z,12.56
2019-05-09T01:16:01.366Z,12.56
2019-05-09T01:17:05.677Z,12.55
2019-05-09T01:18:09.931Z,12.54
2019-05-09T01:19:14.319Z,12.54
2019-05-09T01:20:18.621Z,12.54
2019-05-09T01:21:24.064Z,12.52
2019-05-09T01:22:27.160Z,12.50
2019-05-09T01:23:31.473Z,12.50
2019-05-09T01:24:35.783Z,12.50
2019-05-09T01:25:40.103Z,12.48
2019-05-09T01:26:44.397Z,12.48
2019-05-09T01:27:48.702Z,12.48
2019-05-09T01:28:53.769Z,12.47
2019-05-09T01:29:57.341Z,12.47
2019-05-09T01:31:03.750Z,12.45
2019-05-09T01:32:05.993Z,12.43
2019-05-09T01:33:10.339Z,12.41
2019-05-09T01:34:14.664Z,12.41
2019-05-09T01:35:18.976Z,12.41
2019-05-09T01:36:23.571Z,12.39
2019-05-09T01:37:27.540Z,12.39
2019-05-09T01:38:33.930Z,12.38
2019-05-09T01:39:36.200Z,12.37
2019-05-09T01:40:40.540Z,12.37
2019-05-09T01:41:44.864Z,12.37
2019-05-09T01:42:49.205Z,12.37
2019-05-09T01:43:53.801Z,12.37
2019-05-09T01:44:57.925Z,12.36
2019-05-09T01:46:03.707Z,12.35
2019-05-09T01:47:06.542Z,12.35
2019-05-09T01:48:10.886Z,12.34
2019-05-09T01:49:18.229Z,12.35
2019-05-09T01:50:23.305Z,12.34
2019-05-09T01:51:25.804Z,12.34
2019-05-09T01:52:30.152Z,12.34
2019-05-09T01:53:34.466Z,12.33
2019-05-09T01:54:38.849Z,12.32
2019-05-09T01:55:43.278Z,12.31
2019-05-09T01:56:47.432Z,12.30
2019-05-09T01:57:53.862Z,12.30
2019-05-09T01:58:56.081Z,12.29
2019-05-09T02:00:00.376Z,12.27
2019-05-09T02:01:04.631Z,12.26
2019-05-09T02:02:09.191Z,12.27
2019-05-09T02:03:13.933Z,12.28
2019-05-09T02:04:17.468Z,12.28
2019-05-09T02:05:23.963Z,12.27
2019-05-09T02:06:26.133Z,12.27
2019-05-09T02:07:30.429Z,12.25
2019-05-09T02:08:34.806Z,12.24
2019-05-09T02:09:39.097Z,12.25
2019-05-09T02:10:44.254Z,12.25
2019-05-09T02:11:47.726Z,12.25
2019-05-09T02:12:53.795Z,12.26
2019-05-09T02:13:56.217Z,12.25
2019-05-09T02:15:00.610Z,12.25
2019-05-09T02:16:04.910Z,12.24
2019-05-09T02:17:09.233Z,12.25
2019-05-09T02:18:13.816Z,12.24
2019-05-09T02:19:17.871Z,12.23
2019-05-09T02:20:24.143Z,12.23
2019-05-09T02:21:26.468Z,12.23
2019-05-09T02:22:30.828Z,12.23
2019-05-09T02:23:35.029Z,12.23
2019-05-09T02:24:39.424Z,12.23
2019-05-09T02:25:43.885Z,12.23
2019-05-09T02:26:47.929Z,12.23
2019-05-09T02:27:52.305Z,12.22
2019-05-09T02:28:56.530Z,12.21
2019-05-09T02:30:00.861Z,12.21
2019-05-09T02:31:05.613Z,12.21
2019-05-09T02:32:09.408Z,12.20
2019-05-09T02:33:14.738Z,12.20
2019-05-09T02:34:18.101Z,12.19
2019-05-09T02:35:22.365Z,12.19
2019-05-09T02:36:29.578Z,12.19
2019-05-09T02:37:30.883Z,12.19
2019-05-09T02:38:35.211Z,12.18
2019-05-09T02:39:39.520Z,12.17
2019-05-09T02:40:43.874Z,12.17
2019-05-09T02:42:00.803Z,12.17
2019-05-09T02:42:52.414Z,12.17
2019-05-09T02:43:58.574Z,12.17
2019-05-09T02:45:01.054Z,12.17
2019-05-09T02:46:05.394Z,12.18
2019-05-09T02:47:09.680Z,12.17
2019-05-09T02:48:14.024Z,12.16
2019-05-09T02:49:19.142Z,12.15
2019-05-09T02:50:22.677Z,12.15
2019-05-09T02:51:29.195Z,12.14
2019-05-09T02:52:31.275Z,12.13
2019-05-09T02:53:35.407Z,12.14
2019-05-09T02:54:39.892Z,12.15
2019-05-09T02:55:44.089Z,12.15
2019-05-09T02:56:49.279Z,12.13
2019-05-09T02:57:52.769Z,12.13
2019-05-09T02:58:58.927Z,12.15
2019-05-09T03:00:01.513Z,12.15
2019-05-09T03:01:08.233Z,12.16
2019-05-09T03:02:10.027Z,12.16
2019-05-09T03:03:14.276Z,12.16
2019-05-09T03:04:19.015Z,12.16
2019-05-09T03:05:22.870Z,12.16
2019-05-09T03:06:28.390Z,12.17
2019-05-09T03:07:31.564Z,12.18
2019-05-09T03:08:38.334Z,12.18
2019-05-09T03:09:40.178Z,12.18
2019-05-09T03:10:44.509Z,12.19
2019-05-09T03:11:48.931Z,12.18
2019-05-09T03:12:53.161Z,12.18
2019-05-09T03:13:58.684Z,12.18
2019-05-09T03:15:01.783Z,12.17
2019-05-09T03:16:08.587Z,12.17
2019-05-09T03:17:10.373Z,12.17
2019-05-09T03:18:14.610Z,12.17
2019-05-09T03:19:19.598Z,12.16
2019-05-09T03:20:23.341Z,12.16
2019-05-09T03:21:30.657Z,12.17
2019-05-09T03:22:34.023Z,12.17
2019-05-09T03:23:39.045Z,12.17
2019-05-09T03:24:42.647Z,12.17
2019-05-09T03:25:48.438Z,12.17
2019-05-09T03:26:51.287Z,12.18
2019-05-09T03:27:58.535Z,12.18
2019-05-09T03:28:59.862Z,12.19
2019-05-09T03:30:04.172Z,12.19
2019-05-09T03:31:09.679Z,12.19
2019-05-09T03:32:12.809Z,12.19
2019-05-09T03:33:20.137Z,12.19
2019-05-09T03:34:21.302Z,12.18
2019-05-09T03:35:27.403Z,12.19
2019-05-09T03:36:29.916Z,12.18
2019-05-09T03:37:34.239Z,12.18
2019-05-09T03:38:38.489Z,12.16
2019-05-09T03:39:42.805Z,12.15
2019-05-09T03:40:47.657Z,12.13
2019-05-09T03:41:51.348Z,12.14
2019-05-09T03:42:57.456Z,12.14
2019-05-09T03:44:00.005Z,12.15
2019-05-09T03:45:04.338Z,12.16
2019-05-09T03:46:08.637Z,12.16
2019-05-09T03:47:12.935Z,12.16
2019-05-09T03:48:18.016Z,12.16
2019-05-09T03:49:21.400Z,12.16
2019-05-09T03:50:27.863Z,12.17
2019-05-09T03:51:30.159Z,12.18
2019-05-09T03:52:34.370Z,12.17
2019-05-09T03:53:38.738Z,12.17
2019-05-09T03:54:42.968Z,12.16
2019-05-09T03:55:47.539Z,12.16
2019-05-09T03:56:51.656Z,12.16
2019-05-09T03:57:57.936Z,12.17
2019-05-09T03:59:00.267Z,12.18
2019-05-09T04:00:04.595Z,12.20
2019-05-09T04:01:10.861Z,12.20
2019-05-09T04:02:13.263Z,12.20
2019-05-09T04:03:19.887Z,12.20
2019-05-09T04:04:21.852Z,12.20
2019-05-09T04:05:27.335Z,12.20
2019-05-09T04:06:30.493Z,12.21
2019-05-09T04:07:34.885Z,12.21
2019-05-09T04:08:39.191Z,12.21
2019-05-09T04:09:43.499Z,12.22
2019-05-09T04:10:50.293Z,12.22
2019-05-09T04:11:52.147Z,12.23
2019-05-09T04:12:59.403Z,12.24
2019-05-09T04:14:00.789Z,12.24
2019-05-09T04:15:05.034Z,12.25
2019-05-09T04:16:09.267Z,12.26
2019-05-09T04:17:13.759Z,12.26
2019-05-09T04:18:18.026Z,12.27
2019-05-09T04:19:22.333Z,12.27
2019-05-09T04:20:27.731Z,12.28
2019-05-09T04:21:31.106Z,12.28
2019-05-09T04:22:35.411Z,12.28
2019-05-09T04:23:39.791Z,12.28
2019-05-09T04:24:44.087Z,12.28
2019-05-09T04:25:48.412Z,12.29
2019-05-09T04:26:52.830Z,12.29
2019-05-09T04:27:58.311Z,12.29
2019-05-09T04:29:01.485Z,12.29
2019-05-09T04:30:08.814Z,12.29
2019-05-09T04:31:10.140Z,12.29
2019-05-09T04:32:14.481Z,12.29
2019-05-09T04:33:18.727Z,12.29
2019-05-09T04:34:23.073Z,12.29
2019-05-09T04:35:27.959Z,12.29
2019-05-09T04:36:31.739Z,12.29
2019-05-09T04:37:38.005Z,12.28
2019-05-09T04:38:40.398Z,12.28
2019-05-09T04:39:44.571Z,12.28
2019-05-09T04:40:48.977Z,12.27
2019-05-09T04:41:55.110Z,12.27
2019-05-09T04:43:10.924Z,12.28
2019-05-09T04:44:05.037Z,12.28
2019-05-09T04:45:10.009Z,12.27
2019-05-09T04:46:13.022Z,12.27
2019-05-09T04:47:14.898Z,12.27
2019-05-09T04:48:23.906Z,12.27
2019-05-09T04:49:23.460Z,12.28
2019-05-09T04:50:28.019Z,12.29
2019-05-09T04:51:32.130Z,12.29
2019-05-09T04:52:39.880Z,12.29
2019-05-09T04:53:40.847Z,12.28
2019-05-09T04:54:45.160Z,12.27
2019-05-09T04:55:49.490Z,12.26
2019-05-09T04:56:54.023Z,12.26
2019-05-09T04:58:00.214Z,12.24
2019-05-09T04:59:02.427Z,12.24
2019-05-09T05:00:07.561Z,12.24
2019-05-09T05:01:11.054Z,12.24
2019-05-09T05:02:15.483Z,12.24
2019-05-09T05:03:19.834Z,12.25
2019-05-09T05:04:24.072Z,12.24
2019-05-09T05:05:28.498Z,12.24
2019-05-09T05:06:32.741Z,12.24
2019-05-09T05:07:37.629Z,12.23
2019-05-09T05:08:41.473Z,12.23
2019-05-09T05:09:45.772Z,12.23
2019-05-09T05:10:50.096Z,12.23
2019-05-09T05:11:54.459Z,12.23
2019-05-09T05:12:58.739Z,12.22
2019-05-09T05:14:03.130Z,12.22
2019-05-09T05:15:10.415Z,12.23
2019-05-09T05:16:13.905Z,12.23
2019-05-09T05:17:18.332Z,12.23
2019-05-09T05:18:22.652Z,12.21
2019-05-09T05:19:28.504Z,12.19
2019-05-09T05:20:31.383Z,12.20
2019-05-09T05:21:37.749Z,12.22
2019-05-09T05:22:39.996Z,12.24
2019-05-09T05:23:44.378Z,12.25
2019-05-09T05:24:49.054Z,12.27
2019-05-09T05:25:53.164Z,12.29
2019-05-09T05:26:58.537Z,12.31
2019-05-09T05:28:08.723Z,12.34
2019-05-09T05:29:11.733Z,12.36
2019-05-09T05:30:18.014Z,12.37
2019-05-09T05:31:21.472Z,12.38
2019-05-09T05:32:28.061Z,12.39
2019-05-09T05:33:29.900Z,12.40
2019-05-09T05:34:34.242Z,12.40
2019-05-09T05:35:38.538Z,12.40
2019-05-09T05:36:42.803Z,12.41
2019-05-09T05:37:47.749Z,12.42
2019-05-09T05:38:51.526Z,12.42
2019-05-09T05:39:58.190Z,12.42
2019-05-09T05:41:00.244Z,12.43
2019-05-09T05:42:05.373Z,12.45
2019-05-09T05:43:09.389Z,12.47
2019-05-09T05:44:13.760Z,12.48
2019-05-09T05:45:18.309Z,12.50
2019-05-09T05:46:23.543Z,12.51
2019-05-09T05:47:29.321Z,12.53
2019-05-09T05:48:32.343Z,12.54
2019-05-09T05:49:38.451Z,12.53
2019-05-09T05:50:41.092Z,12.53
2019-05-09T05:51:45.478Z,12.53
2019-05-09T05:52:49.738Z,12.53
2019-05-09T05:53:54.009Z,12.53
2019-05-09T05:54:58.521Z,12.53
2019-05-09T05:56:02.841Z,12.54
2019-05-09T05:57:08.384Z,12.55
2019-05-09T05:58:11.434Z,12.55
2019-05-09T05:59:17.813Z,12.56
2019-05-09T06:00:20.267Z,12.56
2019-05-09T06:01:24.603Z,12.57
2019-05-09T06:02:28.915Z,12.57
2019-05-09T06:03:37.691Z,12.58
2019-05-09T06:04:39.455Z,12.59
2019-05-09T06:05:43.718Z,12.60
2019-05-09T06:06:48.323Z,12.61
2019-05-09T06:07:52.258Z,12.62
2019-05-09T06:08:57.964Z,12.62
2019-05-09T06:10:00.828Z,12.63
2019-05-09T06:11:09.510Z,12.65
2019-05-09T06:12:09.398Z,12.67
2019-05-09T06:13:13.647Z,12.70
2019-05-09T06:14:18.589Z,12.72
2019-05-09T06:15:22.338Z,12.74
2019-05-09T06:16:28.126Z,12.76
2019-05-09T06:17:30.816Z,12.79
2019-05-09T06:18:35.149Z,12.81
2019-05-09T06:19:39.366Z,12.83
2019-05-09T06:20:45.618Z,12.84
2019-05-09T06:21:49.244Z,12.85
2019-05-09T06:22:55.218Z,12.87
2019-05-09T06:23:58.659Z,12.88
2019-05-09T06:25:02.826Z,12.88
2019-05-09T06:26:09.868Z,12.87
2019-05-09T06:27:11.386Z,12.86
2019-05-09T06:28:18.030Z,12.85
2019-05-09T06:29:19.976Z,12.84
2019-05-09T06:30:24.304Z,12.84
2019-05-09T06:31:28.621Z,12.84
2019-05-09T06:32:32.820Z,12.84
2019-05-09T06:33:44.894Z,12.85
2019-05-09T06:34:42.257Z,12.87
2019-05-09T06:35:47.984Z,12.89
2019-05-09T06:36:49.917Z,12.90
2019-05-09T06:37:54.277Z,12.92
2019-05-09T06:38:58.921Z,12.95
2019-05-09T06:40:02.738Z,12.98
2019-05-09T06:41:08.850Z,13.02
2019-05-09T06:42:11.248Z,13.03
2019-05-09T06:43:15.516Z,13.04
2019-05-09T06:44:20.826Z,13.09
2019-05-09T06:45:24.104Z,13.14
2019-05-09T06:46:28.442Z,13.18
2019-05-09T06:47:32.699Z,13.22
2019-05-09T06:48:37.834Z,13.29
2019-05-09T06:49:41.387Z,13.34
2019-05-09T06:50:45.658Z,13.41
2019-05-09T06:51:50.031Z,13.48
2019-05-09T06:52:54.273Z,13.54
2019-05-09T06:53:58.656Z,13.60
2019-05-09T06:55:02.928Z,13.65
2019-05-09T06:56:07.532Z,13.70
2019-05-09T06:57:11.589Z,13.73
2019-05-09T06:58:18.324Z,13.75
2019-05-09T06:59:20.130Z,13.76
2019-05-09T07:00:24.419Z,13.77
2019-05-09T07:01:28.716Z,13.77
2019-05-09T07:02:32.999Z,13.78
2019-05-09T07:03:37.563Z,13.78
2019-05-09T07:04:41.541Z,13.79
2019-05-09T07:05:48.058Z,13.81
2019-05-09T07:06:50.130Z,13.86
2019-05-09T07:07:54.397Z,13.92
2019-05-09T07:08:58.682Z,13.97
2019-05-09T07:10:09.050Z,14.02
2019-05-09T07:11:11.955Z,14.08
2019-05-09T07:12:18.072Z,14.12
2019-05-09T07:13:20.548Z,14.14
2019-05-09T07:14:28.643Z,14.14
2019-05-09T07:15:29.138Z,14.14
2019-05-09T07:16:33.395Z,14.14
2019-05-09T07:17:38.707Z,14.14
2019-05-09T07:18:42.031Z,14.14
2019-05-09T07:19:48.564Z,14.15
2019-05-09T07:20:50.618Z,14.15
2019-05-09T07:21:54.952Z,14.15
2019-05-09T07:22:59.252Z,14.16
2019-05-09T07:24:03.516Z,14.16
2019-05-09T07:25:10.885Z,14.17
2019-05-09T07:26:12.161Z,14.20
2019-05-09T07:27:17.936Z,14.25
2019-05-09T07:28:20.709Z,14.29
2019-05-09T07:29:24.953Z,14.34
2019-05-09T07:30:29.252Z,14.39
2019-05-09T07:31:33.548Z,14.42
2019-05-09T07:32:38.240Z,14.46
2019-05-09T07:33:42.180Z,14.50
2019-05-09T07:34:47.417Z,14.54
2019-05-09T07:35:50.814Z,14.58
2019-05-09T07:36:55.134Z,14.61
2019-05-09T07:37:59.415Z,14.64
2019-05-09T07:39:03.723Z,14.69
2019-05-09T07:40:08.576Z,14.74
2019-05-09T07:41:12.337Z,14.79
2019-05-09T07:42:18.006Z,14.83
2019-05-09T07:43:20.969Z,14.84
2019-05-09T07:44:25.279Z,14.84
2019-05-09T07:45:29.566Z,14.83
2019-05-09T07:46:33.879Z,14.82
2019-05-09T07:47:38.876Z,14.82
2019-05-09T07:48:42.535Z,14.80
2019-05-09T07:49:48.138Z,14.79
2019-05-09T07:50:51.106Z,14.84
2019-05-09T07:51:55.415Z,14.89
2019-05-09T07:52:59.773Z,14.90
2019-05-09T07:54:18.236Z,14.90
2019-05-09T07:55:09.059Z,14.89
2019-05-09T07:56:12.784Z,14.86
2019-05-09T07:57:18.188Z,14.82
2019-05-09T07:58:21.448Z,14.78
2019-05-09T07:59:27.466Z,14.72
2019-05-09T08:00:29.971Z,14.65
2019-05-09T08:01:34.367Z,14.61
2019-05-09T08:02:38.878Z,14.57
2019-05-09T08:03:42.939Z,14.52
2019-05-09T08:04:48.856Z,14.50
2019-05-09T08:05:51.498Z,14.48
2019-05-09T08:06:57.665Z,14.48
2019-05-09T08:08:00.110Z,14.49
2019-05-09T08:09:04.434Z,14.51
2019-05-09T08:10:11.217Z,14.53
2019-05-09T08:11:13.025Z,14.55
2019-05-09T08:12:18.044Z,14.57
2019-05-09T08:13:21.738Z,14.60
2019-05-09T08:14:28.128Z,14.64
2019-05-09T08:15:30.250Z,14.69
2019-05-09T08:16:34.538Z,14.74
2019-05-09T08:17:38.813Z,14.77
2019-05-09T08:18:43.163Z,14.80
2019-05-09T08:19:48.475Z,14.81
2019-05-09T08:20:51.842Z,14.82
2019-05-09T08:21:57.482Z,14.81
2019-05-09T08:23:02.048Z,14.81
2019-05-09T08:24:04.796Z,14.83
2019-05-09T08:25:09.196Z,14.84
2019-05-09T08:26:13.432Z,14.85
2019-05-09T08:27:17.725Z,14.84
2019-05-09T08:28:21.989Z,14.82
2019-05-09T08:29:28.168Z,14.82
2019-05-09T08:30:35.884Z,14.82
2019-05-09T08:31:34.968Z,14.82
2019-05-09T08:32:39.237Z,14.83
2019-05-09T08:33:43.543Z,14.83
2019-05-09T08:34:48.323Z,14.86
2019-05-09T08:35:52.811Z,14.89
2019-05-09T08:36:57.999Z,14.93
2019-05-09T08:38:00.769Z,14.96
2019-05-09T08:39:05.001Z,15.00
2019-05-09T08:40:09.409Z,15.04
2019-05-09T08:41:13.723Z,15.08
2019-05-09T08:42:20.073Z,15.13
2019-05-09T08:43:22.361Z,15.16
2019-05-09T08:44:30.556Z,15.19
2019-05-09T08:45:31.739Z,15.22
2019-05-09T08:46:37.575Z,15.26
2019-05-09T08:47:39.530Z,15.30
2019-05-09T08:48:43.900Z,15.32
2019-05-09T08:49:49.613Z,15.31
2019-05-09T08:50:52.449Z,15.30
2019-05-09T08:52:12.001Z,15.31
2019-05-09T08:53:01.126Z,15.32
2019-05-09T08:54:05.415Z,15.34
2019-05-09T08:55:09.752Z,15.36
2019-05-09T08:56:14.009Z,15.38
2019-05-09T08:57:18.426Z,15.41
2019-05-09T08:58:22.648Z,15.40
2019-05-09T08:59:27.613Z,15.41
2019-05-09T09:00:31.242Z,15.40
2019-05-09T09:01:54.410Z,15.41
2019-05-09T09:02:39.840Z,15.42
2019-05-09T09:03:44.162Z,15.44
2019-05-09T09:04:49.058Z,15.47
2019-05-09T09:05:52.818Z,15.50
2019-05-09T09:06:57.728Z,15.53
2019-05-09T09:08:01.534Z,15.57
2019-05-09T09:09:07.903Z,15.63
2019-05-09T09:10:10.090Z,15.70
2019-05-09T09:11:14.375Z,15.77
2019-05-09T09:12:27.147Z,15.82
2019-05-09T09:13:23.107Z,15.84
2019-05-09T09:14:28.010Z,15.86
2019-05-09T09:15:55.595Z,15.89
2019-05-09T09:16:37.879Z,15.94
2019-05-09T09:17:40.263Z,15.99
2019-05-09T09:18:44.690Z,16.02
2019-05-09T09:19:48.954Z,16.05
2019-05-09T09:20:53.300Z,16.07
2019-05-09T09:22:00.472Z,16.08
2019-05-09T09:23:01.926Z,16.08
2019-05-09T09:24:08.575Z,16.06
2019-05-09T09:25:10.541Z,16.04
2019-05-09T09:26:14.919Z,16.01
2019-05-09T09:27:19.283Z,15.97
2019-05-09T09:28:23.584Z,15.95
2019-05-09T09:29:28.443Z,15.96
2019-05-09T09:30:32.279Z,16.00
2019-05-09T09:31:37.854Z,16.06
2019-05-09T09:32:40.917Z,16.11
2019-05-09T09:33:45.166Z,16.17
2019-05-09T09:34:49.487Z,16.20
2019-05-09T09:35:53.886Z,16.27
2019-05-09T09:37:03.809Z,16.30
2019-05-09T09:38:02.465Z,16.35
2019-05-09T09:39:08.035Z,16.39
2019-05-09T09:40:11.252Z,16.44
2019-05-09T09:41:17.990Z,16.48
2019-05-09T09:42:20.346Z,16.49
2019-05-09T09:43:24.234Z,16.48
2019-05-09T09:44:28.882Z,16.46
2019-05-09T09:45:32.871Z,16.43
2019-05-09T09:46:37.501Z,16.41
2019-05-09T09:47:41.535Z,16.43
2019-05-09T09:48:48.928Z,16.47
2019-05-09T09:49:55.110Z,16.53
2019-05-09T09:50:57.953Z,16.60
2019-05-09T09:52:01.071Z,16.66
2019-05-09T09:53:08.282Z,16.74
2019-05-09T09:54:09.658Z,16.84
2019-05-09T09:55:14.324Z,16.96
2019-05-09T09:56:22.418Z,17.08
2019-05-09T09:57:22.839Z,17.20
2019-05-09T09:58:27.430Z,17.31
2019-05-09T09:59:31.489Z,17.41
2019-05-09T10:00:38.101Z,17.45
2019-05-09T10:01:40.129Z,17.51
2019-05-09T10:02:44.537Z,17.55
2019-05-09T10:03:48.913Z,17.56
2019-05-09T10:04:53.229Z,17.55
2019-05-09T10:05:57.893Z,17.55
2019-05-09T10:07:01.955Z,17.55
2019-05-09T10:08:08.886Z,17.54
2019-05-09T10:09:10.547Z,17.48
2019-05-09T10:10:14.846Z,17.45
2019-05-09T10:11:19.169Z,17.45
2019-05-09T10:12:23.521Z,17.46
2019-05-09T10:13:28.702Z,17.49
2019-05-09T10:14:32.194Z,17.53
2019-05-09T10:15:38.392Z,17.58
2019-05-09T10:16:40.887Z,17.60
2019-05-09T10:17:47.571Z,17.60
2019-05-09T10:18:49.582Z,17.60
2019-05-09T10:19:53.930Z,17.62
2019-05-09T10:20:58.663Z,17.66
2019-05-09T10:22:02.620Z,17.70
2019-05-09T10:23:14.940Z,17.72
2019-05-09T10:24:11.259Z,17.71
2019-05-09T10:25:18.121Z,17.67
2019-05-09T10:26:19.934Z,17.62
2019-05-09T10:27:24.262Z,17.56
2019-05-09T10:28:30.047Z,17.52
2019-05-09T10:29:32.917Z,17.47
2019-05-09T10:30:38.284Z,17.43
2019-05-09T10:31:41.625Z,17.38
2019-05-09T10:32:47.635Z,17.33
2019-05-09T10:33:50.427Z,17.28
2019-05-09T10:34:54.648Z,17.25
2019-05-09T10:36:04.088Z,17.22
2019-05-09T10:37:03.473Z,17.20
2019-05-09T10:38:08.725Z,17.18
2019-05-09T10:39:12.104Z,17.16
2019-05-09T10:40:16.534Z,17.15
2019-05-09T10:41:20.866Z,17.15
2019-05-09T10:42:25.341Z,17.14
2019-05-09T10:43:38.449Z,17.15
2019-05-09T10:44:34.125Z,17.15
2019-05-09T10:45:40.766Z,17.11
2019-05-09T10:46:52.504Z,17.09
2019-05-09T10:47:48.277Z,17.10
2019-05-09T10:48:51.553Z,17.12
2019-05-09T10:49:58.033Z,17.14
2019-05-09T10:51:04.188Z,17.17
2019-05-09T10:52:04.667Z,17.23
2019-05-09T10:53:08.925Z,17.27
2019-05-09T10:54:13.346Z,17.33
2019-05-09T10:55:18.076Z,17.40
2019-05-09T10:56:22.055Z,17.47
2019-05-09T10:57:30.950Z,17.50
2019-05-09T10:58:30.843Z,17.55
2019-05-09T10:59:37.546Z,17.59
2019-05-09T11:00:39.834Z,17.62
2019-05-09T11:01:43.923Z,17.63
2019-05-09T11:02:48.465Z,17.62
2019-05-09T11:03:52.557Z,17.60
2019-05-09T11:04:57.636Z,17.58
2019-05-09T11:06:01.251Z,17.59
2019-05-09T11:07:08.102Z,17.62
2019-05-09T11:08:09.959Z,17.61
2019-05-09T11:09:14.392Z,17.63
2019-05-09T11:10:25.658Z,17.63
2019-05-09T11:11:23.103Z,17.60
2019-05-09T11:12:27.739Z,17.59
2019-05-09T11:13:31.803Z,17.57
2019-05-09T11:14:37.537Z,17.59
2019-05-09T11:15:40.666Z,17.62
2019-05-09T11:16:47.456Z,17.62
2019-05-09T11:17:49.295Z,17.61
2019-05-09T11:18:53.606Z,17.61
2019-05-09T11:19:58.842Z,17.60
2019-05-09T11:21:02.242Z,17.60
2019-05-09T11:22:08.094Z,17.61
2019-05-09T11:23:10.950Z,17.63
2019-05-09T11:24:15.434Z,17.64
2019-05-09T11:25:19.747Z,17.66
2019-05-09T11:26:24.058Z,17.67
2019-05-09T11:27:29.295Z,17.70
2019-05-09T11:28:35.677Z,17.73
2019-05-09T11:29:39.189Z,17.75
2019-05-09T11:30:43.442Z,17.78
2019-05-09T11:31:47.862Z,17.78
2019-05-09T11:32:52.097Z,17.78
2019-05-09T11:33:57.843Z,17.81
2019-05-09T11:35:00.850Z,17.82
2019-05-09T11:36:05.247Z,17.85
2019-05-09T11:37:09.501Z,17.86
2019-05-09T11:38:13.986Z,17.88
2019-05-09T11:39:35.286Z,17.88
2019-05-09T11:40:22.588Z,17.90
2019-05-09T11:41:29.430Z,17.91
2019-05-09T11:42:33.410Z,17.92
2019-05-09T11:43:35.587Z,17.93
2019-05-09T11:44:39.971Z,17.94
2019-05-09T11:45:44.307Z,17.94
2019-05-09T11:46:48.713Z,17.95
2019-05-09T11:47:52.984Z,17.95
2019-05-09T11:48:58.506Z,17.94
2019-05-09T11:50:01.645Z,17.93
2019-05-09T11:51:06.007Z,17.88
2019-05-09T11:52:10.313Z,17.81
2019-05-09T11:53:14.756Z,17.82
2019-05-09T11:54:19.621Z,17.85
2019-05-09T11:55:32.386Z,17.89
2019-05-09T11:56:27.703Z,17.95
2019-05-09T11:57:31.986Z,17.98
2019-05-09T11:58:37.939Z,18.01
2019-05-09T11:59:40.737Z,18.04
2019-05-09T12:00:45.079Z,18.04
2019-05-09T12:01:49.433Z,18.02
2019-05-09T12:02:54.811Z,17.99
2019-05-09T12:03:58.698Z,17.95
2019-05-09T12:05:03.035Z,17.90
2019-05-09T12:06:08.119Z,17.86
2019-05-09T12:07:11.720Z,17.83
2019-05-09T12:08:17.719Z,17.81
2019-05-09T12:09:20.474Z,17.78
2019-05-09T12:10:24.709Z,17.77
2019-05-09T12:11:29.078Z,17.72
2019-05-09T12:12:33.488Z,17.72
2019-05-09T12:13:38.087Z,17.67
2019-05-09T12:14:42.234Z,17.69
2019-05-09T12:15:48.881Z,17.68
2019-05-09T12:16:50.888Z,17.74
2019-05-09T12:18:01.674Z,17.87
2019-05-09T12:18:59.585Z,18.02
2019-05-09T12:20:12.339Z,18.21
2019-05-09T12:21:08.590Z,18.42
2019-05-09T12:22:12.656Z,18.58
2019-05-09T12:23:19.988Z,18.64
2019-05-09T12:24:21.372Z,18.66
2019-05-09T12:25:28.070Z,18.63
2019-05-09T12:26:30.086Z,18.59
2019-05-09T12:27:34.414Z,18.54
2019-05-09T12:28:38.818Z,18.54
2019-05-09T12:29:43.147Z,18.62
2019-05-09T12:30:48.986Z,18.71
2019-05-09T12:31:51.839Z,18.78
2019-05-09T12:32:58.614Z,18.89
2019-05-09T12:34:00.535Z,19.00
2019-05-09T12:35:04.887Z,19.12
2019-05-09T12:36:09.438Z,19.20
2019-05-09T12:37:13.589Z,19.27
2019-05-09T12:38:18.406Z,19.36
2019-05-09T12:39:22.297Z,19.49
2019-05-09T12:40:26.669Z,19.62
2019-05-09T12:41:31.945Z,19.78
2019-05-09T12:42:35.389Z,19.86
2019-05-09T12:43:39.806Z,19.98
2019-05-09T12:44:44.129Z,20.07
2019-05-09T12:45:48.485Z,20.08
2019-05-09T12:46:52.873Z,19.92
2019-05-09T12:48:10.032Z,19.71
2019-05-09T12:49:01.638Z,19.58
2019-05-09T12:50:08.423Z,19.46
2019-05-09T12:51:10.336Z,19.34
2019-05-09T12:52:14.672Z,19.23
2019-05-09T12:53:19.157Z,19.14
2019-05-09T12:54:23.398Z,18.96
2019-05-09T12:55:30.745Z,18.88
2019-05-09T12:56:34.204Z,18.87
2019-05-09T12:57:38.833Z,18.91
2019-05-09T12:58:42.855Z,18.94
2019-05-09T12:59:52.344Z,18.93
2019-05-09T13:00:52.015Z,18.90
2019-05-09T13:01:58.058Z,18.85
2019-05-09T13:03:00.232Z,18.82
2019-05-09T13:04:04.564Z,18.80
2019-05-09T13:05:08.911Z,18.74
2019-05-09T13:06:13.300Z,18.70
2019-05-09T13:07:17.756Z,18.67
2019-05-09T13:08:22.118Z,18.61
2019-05-09T13:09:28.609Z,18.58
2019-05-09T13:10:30.744Z,18.55
2019-05-09T13:11:35.113Z,18.50
2019-05-09T13:12:39.448Z,18.47
2019-05-09T13:13:43.884Z,18.44
2019-05-09T13:14:48.677Z,18.42
2019-05-09T13:15:52.545Z,18.41
2019-05-09T13:16:57.463Z,18.39
2019-05-09T13:18:01.201Z,18.38
2019-05-09T13:19:05.534Z,18.39
2019-05-09T13:20:09.878Z,18.36
2019-05-09T13:21:14.275Z,18.25
2019-05-09T13:22:18.676Z,18.15
2019-05-09T13:23:22.912Z,18.12
2019-05-09T13:24:28.336Z,18.13
2019-05-09T13:25:31.674Z,18.16
2019-05-09T13:26:38.293Z,18.17
2019-05-09T13:27:40.328Z,18.19
2019-05-09T13:28:44.618Z,18.20
2019-05-09T13:29:49.639Z,18.21
2019-05-09T13:30:53.402Z,18.20
2019-05-09T13:31:57.844Z,18.20
2019-05-09T13:33:02.048Z,18.21
2019-05-09T13:34:08.059Z,18.24
2019-05-09T13:35:10.699Z,18.27
2019-05-09T13:36:15.009Z,18.29
2019-05-09T13:37:19.378Z,18.31
2019-05-09T13:38:23.719Z,18.34
2019-05-09T13:39:28.165Z,18.35
2019-05-09T13:40:32.588Z,18.36
2019-05-09T13:41:37.629Z,18.38
2019-05-09T13:42:41.414Z,18.41
2019-05-09T13:43:56.842Z,18.43
2019-05-09T13:44:50.056Z,18.43
2019-05-09T13:45:54.489Z,18.44
2019-05-09T13:46:58.790Z,18.46
2019-05-09T13:48:03.147Z,18.48
2019-05-09T13:49:12.445Z,18.51